Time;durP1;ratioP1;P1;durP2;ratioP2;P2;SDS_P1;SDS_P2;PMS_P1;PMS_P2;Temp;Humidity;BMP_temperature;BMP_pressure;BME280_temperature;BME280_humidity;BME280_pressure;Samples;Min_cycle;Max_cycle;Signal;HPM_P1;HPM_P2
2023/11/16 00:00:56;;;;;;;2.88;2.67;;;17.90;74.30;;;;;;4963591;28;20042;-80
2023/11/16 00:03:23;;;;;;;3.20;2.90;;;17.90;73.40;;;;;;4965260;28;20078;-80
2023/11/16 00:05:49;;;;;;;3.40;2.80;;;17.90;73.40;;;;;;4965152;28;20046;-79
2023/11/16 00:08:16;;;;;;;3.28;2.90;;;17.90;73.40;;;;;;4968342;28;20074;-80
2023/11/16 00:10:42;;;;;;;2.90;2.58;;;17.90;73.40;;;;;;4966954;28;20055;-79
2023/11/16 00:13:09;;;;;;;2.95;2.75;;;17.90;73.40;;;;;;4968030;28;20182;-79
2023/11/16 00:15:35;;;;;;;2.65;2.42;;;17.90;73.40;;;;;;4949846;28;20035;-79
2023/11/16 00:18:04;;;;;;;3.47;2.65;;;17.90;73.50;;;;;;4965049;28;20055;-80
2023/11/16 00:20:30;;;;;;;2.28;2.05;;;17.90;73.40;;;;;;4965827;28;20662;-79
2023/11/16 00:22:56;;;;;;;3.00;2.70;;;17.90;73.30;;;;;;4963726;28;20056;-79
2023/11/16 00:25:23;;;;;;;2.70;2.50;;;17.90;73.40;;;;;;4969093;28;20521;-79
2023/11/16 00:27:48;;;;;;;3.88;2.50;;;17.90;73.40;;;;;;4966268;28;20057;-79
2023/11/16 00:30:14;;;;;;;2.60;2.40;;;17.80;73.40;;;;;;4950064;28;20509;-79
2023/11/16 00:32:40;;;;;;;4.00;2.53;;;17.90;73.30;;;;;;4966108;28;20042;-80
2023/11/16 00:35:07;;;;;;;2.58;2.38;;;17.90;73.30;;;;;;4965538;28;20390;-79
2023/11/16 00:37:32;;;;;;;2.25;2.13;;;17.90;73.30;;;;;;4966211;28;20043;-79
2023/11/16 00:39:59;;;;;;;2.28;2.08;;;17.90;73.30;;;;;;4965482;28;20043;-79
2023/11/16 00:42:24;;;;;;;2.50;2.30;;;17.80;73.20;;;;;;4964331;28;20042;-80
2023/11/16 00:44:50;;;;;;;3.53;2.53;;;17.90;73.30;;;;;;4964929;28;20397;-79
2023/11/16 00:47:18;;;;;;;2.88;2.28;;;17.80;73.20;;;;;;4967753;28;20046;-79
2023/11/16 00:49:47;;;;;;;2.40;2.20;;;17.90;73.20;;;;;;4982553;28;20484;-79
2023/11/16 00:52:12;;;;;;;2.95;2.65;;;17.90;73.20;;;;;;4965968;28;20509;-79
2023/11/16 00:54:38;;;;;;;2.17;2.03;;;17.80;74.00;;;;;;4965460;28;20093;-81
2023/11/16 00:57:04;;;;;;;2.20;2.00;;;17.80;73.20;;;;;;4965528;28;20039;-81
2023/11/16 00:59:30;;;;;;;2.47;2.28;;;17.80;73.20;;;;;;4969793;28;20062;-81
2023/11/16 01:01:58;;;;;;;2.60;2.40;;;17.80;73.20;;;;;;4967202;28;20493;-80
2023/11/16 01:04:24;;;;;;;2.50;2.30;;;17.80;73.30;;;;;;4968737;28;20039;-80
2023/11/16 01:06:50;;;;;;;1.90;1.80;;;17.80;73.90;;;;;;4970306;28;20409;-81
2023/11/16 01:09:16;;;;;;;2.60;2.40;;;17.80;73.20;;;;;;4970468;28;20601;-80
2023/11/16 01:11:42;;;;;;;2.28;2.08;;;17.80;73.10;;;;;;4969003;28;20046;-81
2023/11/16 01:14:08;;;;;;;2.15;1.98;;;17.80;73.10;;;;;;4967189;28;20509;-79
2023/11/16 01:16:44;;;;;;;2.60;2.35;;;17.80;73.10;;;;;;4968119;28;20085;-80
2023/11/16 01:19:09;;;;;;;2.33;2.13;;;17.80;73.10;;;;;;4969308;28;20058;-79
2023/11/16 01:21:44;;;;;;;2.05;1.95;;;17.80;73.10;;;;;;4955377;28;20038;-80
2023/11/16 01:24:10;;;;;;;2.15;2.00;;;17.80;73.10;;;;;;4964822;28;20046;-80
2023/11/16 01:26:36;;;;;;;2.20;2.00;;;17.80;73.10;;;;;;4969271;28;20457;-81
2023/11/16 01:29:06;;;;;;;2.20;2.00;;;17.80;73.10;;;;;;4951858;28;20421;-80
2023/11/16 01:31:32;;;;;;;2.45;2.25;;;17.80;73.10;;;;;;4969388;28;20130;-80
2023/11/16 01:33:57;;;;;;;2.05;1.85;;;17.80;73.20;;;;;;4951637;28;20221;-80
2023/11/16 01:36:24;;;;;;;2.40;2.20;;;17.80;73.20;;;;;;4968506;28;20046;-80
2023/11/16 01:38:50;;;;;;;2.90;1.67;;;17.80;73.10;;;;;;4966851;28;20537;-82
2023/11/16 01:41:16;;;;;;;1.88;1.75;;;17.80;73.10;;;;;;4952260;28;20039;-82
2023/11/16 01:43:42;;;;;;;1.83;1.73;;;17.80;73.10;;;;;;4968916;28;20134;-82
2023/11/16 01:46:09;;;;;;;2.05;1.85;;;17.80;73.00;;;;;;4954903;28;20178;-81
2023/11/16 01:48:44;;;;;;;2.08;1.88;;;17.80;73.00;;;;;;4966628;28;20050;-80
2023/11/16 01:51:14;;;;;;;2.72;2.25;;;17.80;73.10;;;;;;4968051;28;20043;-80
2023/11/16 01:53:56;;;;;;;2.13;1.92;;;17.80;73.00;;;;;;4952041;28;20126;-81
2023/11/16 01:56:23;;;;;;;2.05;1.92;;;17.80;73.00;;;;;;4966148;28;20042;-81
2023/11/16 01:58:50;;;;;;;2.03;1.92;;;17.80;73.00;;;;;;4967747;28;20070;-81
2023/11/16 02:01:16;;;;;;;2.30;2.10;;;17.80;73.00;;;;;;4953753;28;20101;-79
2023/11/16 02:03:44;;;;;;;1.85;1.75;;;17.80;73.00;;;;;;4968392;28;20046;-79
2023/11/16 02:06:09;;;;;;;2.15;1.90;;;17.80;73.00;;;;;;4965307;28;20118;-79
2023/11/16 02:08:35;;;;;;;1.77;1.60;;;17.80;73.10;;;;;;4967362;28;20817;-79
2023/11/16 02:11:01;;;;;;;2.15;1.95;;;17.70;73.00;;;;;;4964704;28;20051;-79
2023/11/16 02:13:26;;;;;;;1.63;1.52;;;17.80;73.00;;;;;;4966989;28;20053;-79
2023/11/16 02:15:55;;;;;;;1.83;1.73;;;17.70;73.00;;;;;;4969173;28;20138;-80
2023/11/16 02:18:22;;;;;;;2.00;1.77;;;17.70;73.00;;;;;;4967288;28;20042;-80
2023/11/16 02:20:47;;;;;;;1.70;1.60;;;17.70;73.00;;;;;;4965041;28;20042;-81
2023/11/16 02:23:19;;;;;;;1.45;1.35;;;17.70;73.10;;;;;;4969148;28;20109;-82
2023/11/16 02:25:52;;;;;;;1.80;1.60;;;17.70;73.10;;;;;;4954214;28;20049;-81
2023/11/16 02:28:20;;;;;;;1.65;1.55;;;17.70;73.10;;;;;;4969372;28;20524;-82
2023/11/16 02:30:46;;;;;;;2.90;1.73;;;17.70;73.10;;;;;;4966362;28;20489;-82
2023/11/16 02:33:12;;;;;;;2.13;1.92;;;17.70;73.10;;;;;;4965851;28;20078;-79
2023/11/16 02:35:38;;;;;;;1.80;1.40;;;17.70;73.00;;;;;;4965982;28;20039;-80
2023/11/16 02:38:03;;;;;;;1.45;1.20;;;17.70;73.10;;;;;;4933365;28;20031;-79
2023/11/16 02:40:29;;;;;;;1.67;1.40;;;17.70;73.00;;;;;;4960521;28;20058;-79
2023/11/16 02:42:55;;;;;;;1.92;1.20;;;17.70;73.00;;;;;;4968642;28;20397;-79
2023/11/16 02:45:22;;;;;;;1.60;1.50;;;17.70;73.00;;;;;;4967717;28;20096;-81
2023/11/16 02:47:50;;;;;;;1.73;1.63;;;17.70;73.00;;;;;;4967640;28;20031;-81
2023/11/16 02:50:19;;;;;;;1.23;1.13;;;17.70;73.10;;;;;;4965232;28;20122;-81
2023/11/16 02:52:45;;;;;;;1.60;1.50;;;17.70;73.00;;;;;;4964868;28;20034;-80
2023/11/16 02:55:11;;;;;;;1.48;1.38;;;17.70;73.10;;;;;;4968245;28;20501;-80
2023/11/16 02:57:39;;;;;;;1.50;1.40;;;17.70;73.00;;;;;;4969360;28;20039;-81
2023/11/16 03:00:11;;;;;;;1.58;1.40;;;17.70;73.00;;;;;;4964958;28;20130;-80
2023/11/16 03:02:40;;;;;;;1.45;1.35;;;17.70;73.10;;;;;;4967818;28;20058;-79
2023/11/16 03:05:07;;;;;;;2.00;1.80;;;17.70;73.10;;;;;;4964184;28;20046;-80
2023/11/16 03:07:33;;;;;;;2.03;1.23;;;17.70;73.00;;;;;;4967101;28;20505;-80
2023/11/16 03:10:01;;;;;;;1.45;1.35;;;17.70;73.70;;;;;;4966549;28;20511;-80
2023/11/16 03:12:26;;;;;;;1.67;1.58;;;17.70;73.80;;;;;;4968288;28;20074;-80
2023/11/16 03:14:53;;;;;;;1.23;1.13;;;17.70;73.10;;;;;;4968342;28;20071;-80
2023/11/16 03:17:20;;;;;;;1.50;1.40;;;17.70;73.00;;;;;;4966705;28;20788;-80
2023/11/16 03:19:45;;;;;;;1.45;1.30;;;17.70;73.00;;;;;;4965412;28;20146;-81
2023/11/16 03:22:11;;;;;;;1.55;1.45;;;17.70;73.00;;;;;;4966814;28;22533;-79
2023/11/16 03:24:37;;;;;;;1.33;1.23;;;17.70;73.00;;;;;;4949156;28;20520;-79
2023/11/16 03:27:03;;;;;;;1.65;1.55;;;17.70;73.00;;;;;;4966780;28;20169;-80
2023/11/16 03:29:30;;;;;;;3.53;1.20;;;17.70;73.00;;;;;;4952960;28;20312;-79
2023/11/16 03:31:56;;;;;;;1.85;1.00;;;17.60;73.00;;;;;;4965765;28;20065;-79
2023/11/16 03:34:22;;;;;;;1.70;1.60;;;17.60;73.00;;;;;;4969665;28;20061;-79
2023/11/16 03:36:48;;;;;;;1.40;1.10;;;17.60;73.00;;;;;;4969489;28;20509;-79
2023/11/16 03:39:14;;;;;;;1.45;1.35;;;17.60;73.00;;;;;;4965172;28;20092;-80
2023/11/16 03:41:39;;;;;;;1.45;1.35;;;17.60;73.00;;;;;;4965989;28;20406;-80
2023/11/16 03:44:05;;;;;;;1.20;1.10;;;17.60;73.00;;;;;;4968046;28;20125;-79
2023/11/16 03:46:31;;;;;;;1.40;1.13;;;17.60;73.00;;;;;;4966481;28;20069;-79
2023/11/16 03:48:57;;;;;;;1.30;1.17;;;17.60;73.00;;;;;;4966024;28;20406;-80
2023/11/16 03:51:22;;;;;;;1.58;1.33;;;17.60;73.00;;;;;;4966898;28;20049;-80
2023/11/16 03:53:48;;;;;;;1.25;1.15;;;17.60;73.00;;;;;;4966742;28;20050;-80
2023/11/16 03:56:13;;;;;;;2.45;1.10;;;17.60;73.00;;;;;;4949660;28;20544;-80
2023/11/16 03:58:39;;;;;;;1.33;0.95;;;17.60;73.00;;;;;;4965318;28;20517;-80
2023/11/16 04:01:04;;;;;;;0.95;0.95;;;17.60;73.00;;;;;;4968441;28;20043;-80
2023/11/16 04:03:31;;;;;;;1.25;0.95;;;17.60;73.10;;;;;;4967788;28;20042;-79
2023/11/16 04:05:59;;;;;;;1.02;0.93;;;17.60;73.00;;;;;;4965277;28;20041;-80
2023/11/16 04:08:26;;;;;;;1.17;1.08;;;17.60;73.00;;;;;;4965748;28;20062;-79
2023/11/16 04:10:51;;;;;;;1.25;1.15;;;17.60;73.00;;;;;;4966676;28;20110;-79
2023/11/16 04:13:17;;;;;;;0.93;0.93;;;17.60;73.80;;;;;;4965709;28;20134;-80
2023/11/16 04:15:45;;;;;;;1.25;1.15;;;17.60;73.00;;;;;;4968194;28;20035;-80
2023/11/16 04:18:11;;;;;;;1.30;1.20;;;17.60;73.00;;;;;;4965132;28;20073;-79
2023/11/16 04:20:36;;;;;;;1.17;1.08;;;17.60;72.90;;;;;;4967507;28;20054;-79
2023/11/16 04:23:02;;;;;;;0.90;0.90;;;17.60;72.90;;;;;;4966526;28;20054;-80
2023/11/16 04:25:28;;;;;;;1.20;1.10;;;17.60;73.80;;;;;;4968408;28;20528;-79
2023/11/16 04:27:59;;;;;;;1.42;0.98;;;17.60;73.00;;;;;;4981742;28;20143;-79
2023/11/16 04:30:28;;;;;;;1.60;1.23;;;17.60;72.90;;;;;;4951666;28;20125;-80
2023/11/16 04:33:00;;;;;;;1.30;1.20;;;17.60;72.90;;;;;;4970692;28;20050;-80
2023/11/16 04:35:25;;;;;;;1.70;1.00;;;17.60;73.00;;;;;;4971770;28;20524;-80
2023/11/16 04:37:53;;;;;;;0.90;0.90;;;17.60;73.00;;;;;;4971025;28;20042;-80
2023/11/16 04:40:19;;;;;;;1.55;1.15;;;17.60;73.00;;;;;;4970062;28;20496;-80
2023/11/16 04:42:47;;;;;;;1.02;1.00;;;17.60;72.90;;;;;;4968212;28;20047;-80
2023/11/16 04:45:14;;;;;;;1.08;0.98;;;17.60;72.90;;;;;;4966017;28;20046;-80
2023/11/16 04:47:40;;;;;;;1.00;1.00;;;17.60;72.90;;;;;;4969826;28;20066;-80
2023/11/16 04:50:06;;;;;;;1.80;1.42;;;17.60;72.90;;;;;;4953953;28;20046;-80
2023/11/16 04:52:35;;;;;;;0.73;0.73;;;17.60;73.00;;;;;;4969613;28;20039;-79
2023/11/16 04:55:00;;;;;;;0.70;0.70;;;17.60;73.00;;;;;;4970417;28;20058;-79
2023/11/16 04:57:27;;;;;;;0.85;0.85;;;17.60;73.00;;;;;;4952543;28;20042;-79
2023/11/16 04:59:53;;;;;;;1.33;1.00;;;17.60;72.90;;;;;;4950795;28;20113;-79
2023/11/16 05:02:19;;;;;;;1.15;1.05;;;17.60;72.90;;;;;;4967640;28;20113;-79
2023/11/16 05:04:45;;;;;;;0.90;0.80;;;17.60;72.90;;;;;;4972742;28;20138;-80
2023/11/16 05:07:12;;;;;;;0.85;0.85;;;17.60;73.00;;;;;;4953814;28;20087;-79
2023/11/16 05:09:38;;;;;;;0.88;0.88;;;17.60;72.90;;;;;;4970666;28;20098;-80
2023/11/16 05:12:04;;;;;;;1.10;0.90;;;17.60;73.00;;;;;;4969492;28;20520;-80
2023/11/16 05:14:30;;;;;;;0.88;0.88;;;17.60;72.90;;;;;;4970994;28;20046;-79
2023/11/16 05:16:55;;;;;;;0.82;0.77;;;17.60;72.90;;;;;;4970911;28;20051;-79
2023/11/16 05:19:21;;;;;;;0.93;0.90;;;17.60;72.90;;;;;;4970857;28;20046;-80
2023/11/16 05:21:48;;;;;;;0.80;0.80;;;17.60;73.00;;;;;;4967121;28;20046;-80
2023/11/16 05:24:14;;;;;;;0.98;0.88;;;17.60;72.90;;;;;;4968836;28;20141;-80
2023/11/16 05:26:39;;;;;;;0.70;0.70;;;17.60;72.90;;;;;;4952077;28;20179;-80
2023/11/16 05:29:05;;;;;;;1.00;0.90;;;17.60;73.00;;;;;;4967870;28;20535;-80
2023/11/16 05:31:31;;;;;;;1.33;0.98;;;17.60;72.90;;;;;;4970294;28;20043;-81
2023/11/16 05:33:57;;;;;;;0.82;0.73;;;17.50;72.90;;;;;;4969648;28;20531;-80
2023/11/16 05:36:22;;;;;;;0.80;0.80;;;17.50;72.90;;;;;;4968832;28;20054;-80
2023/11/16 05:38:49;;;;;;;0.75;0.75;;;17.50;72.80;;;;;;4968737;28;20147;-80
2023/11/16 05:41:15;;;;;;;0.80;0.77;;;17.60;73.00;;;;;;4971751;28;20130;-80
2023/11/16 05:43:41;;;;;;;0.80;0.80;;;17.50;72.90;;;;;;4952038;28;20185;-79
2023/11/16 05:46:06;;;;;;;0.80;0.80;;;17.50;72.90;;;;;;4968720;28;20046;-81
2023/11/16 05:48:32;;;;;;;0.80;0.80;;;17.50;72.80;;;;;;4967451;28;20050;-82
2023/11/16 05:50:57;;;;;;;2.13;0.90;;;17.50;73.00;;;;;;4970427;28;20591;-81
2023/11/16 05:53:23;;;;;;;0.70;0.70;;;17.50;72.90;;;;;;4969127;28;20414;-81
2023/11/16 05:55:49;;;;;;;0.70;0.70;;;17.50;73.00;;;;;;4968421;28;20130;-81
2023/11/16 05:58:14;;;;;;;0.60;0.55;;;17.50;73.00;;;;;;4970039;28;20058;-79
2023/11/16 06:00:40;;;;;;;0.77;0.77;;;17.50;73.00;;;;;;4966080;28;20146;-79
2023/11/16 06:03:06;;;;;;;0.50;0.40;;;17.50;73.00;;;;;;4968212;28;20047;-81
2023/11/16 06:05:32;;;;;;;0.70;0.70;;;17.50;73.00;;;;;;4969022;28;20038;-81
2023/11/16 06:07:58;;;;;;;0.73;0.70;;;17.50;73.00;;;;;;4970491;28;20089;-80
2023/11/16 06:10:23;;;;;;;1.27;0.70;;;17.50;73.00;;;;;;4970816;28;21841;-80
2023/11/16 06:12:49;;;;;;;0.60;0.60;;;17.60;73.20;;;;;;4951686;28;20042;-81
2023/11/16 06:15:15;;;;;;;0.60;0.60;;;17.50;73.10;;;;;;4967157;28;20390;-82
2023/11/16 06:17:43;;;;;;;0.75;0.70;;;17.50;73.10;;;;;;4969056;28;20051;-82
2023/11/16 06:20:10;;;;;;;0.55;0.52;;;17.60;73.10;;;;;;4964656;28;20051;-81
2023/11/16 06:22:37;;;;;;;0.68;0.52;;;17.50;73.00;;;;;;4950724;28;20497;-82
2023/11/16 06:25:04;;;;;;;0.50;0.40;;;17.50;72.90;;;;;;4948684;28;20496;-82
2023/11/16 06:27:31;;;;;;;0.60;0.57;;;17.60;73.00;;;;;;4967802;28;20510;-81
2023/11/16 06:29:56;;;;;;;2.08;0.80;;;17.50;73.40;;;;;;4969281;28;20050;-81
2023/11/16 06:32:22;;;;;;;0.70;0.70;;;17.60;74.50;;;;;;4969008;28;20043;-83
2023/11/16 06:34:48;;;;;;;2.00;0.80;;;17.60;73.80;;;;;;4967034;28;20038;-80
2023/11/16 06:37:14;;;;;;;0.80;0.80;;;17.60;73.80;;;;;;4955535;28;20143;-80
2023/11/16 06:39:39;;;;;;;0.80;0.60;;;17.60;73.60;;;;;;4966578;28;20513;-80
2023/11/16 06:42:08;;;;;;;0.85;0.60;;;17.60;74.10;;;;;;4964764;28;20109;-79
2023/11/16 06:44:33;;;;;;;1.13;0.60;;;17.60;74.10;;;;;;4932750;28;20174;-82
2023/11/16 06:46:59;;;;;;;0.73;0.73;;;17.60;74.40;;;;;;4963658;28;20058;-81
2023/11/16 06:49:28;;;;;;;0.55;0.55;;;17.60;74.20;;;;;;4958568;28;20066;-81
2023/11/16 06:51:54;;;;;;;0.95;0.60;;;17.60;74.30;;;;;;4954657;28;20058;-81
2023/11/16 06:54:21;;;;;;;0.50;0.50;;;17.60;74.20;;;;;;4970073;28;20056;-80
2023/11/16 06:56:49;;;;;;;0.70;0.65;;;17.60;74.20;;;;;;4954726;28;20051;-81
2023/11/16 06:59:19;;;;;;;1.20;0.45;;;17.60;74.20;;;;;;4953153;28;20709;-81
2023/11/16 07:01:47;;;;;;;0.52;0.52;;;17.50;74.20;;;;;;4958111;28;20042;-80
2023/11/16 07:04:16;;;;;;;0.70;0.50;;;17.50;74.20;;;;;;4963850;28;20094;-82
2023/11/16 07:06:42;;;;;;;0.70;0.70;;;17.50;74.30;;;;;;4961467;28;20122;-83
2023/11/16 07:09:08;;;;;;;0.70;0.63;;;17.50;74.20;;;;;;4957381;28;20328;-83
2023/11/16 07:11:33;;;;;;;1.13;0.90;;;17.50;74.30;;;;;;4954347;28;20043;-83
2023/11/16 07:13:59;;;;;;;0.65;0.65;;;17.50;74.20;;;;;;4955234;28;20057;-83
2023/11/16 07:16:25;;;;;;;1.02;0.80;;;17.50;74.20;;;;;;4960369;28;20138;-85
2023/11/16 07:18:52;;;;;;;0.60;0.60;;;17.60;74.30;;;;;;4961439;28;20051;-82
2023/11/16 07:21:18;;;;;;;1.08;0.70;;;17.60;74.30;;;;;;4962241;28;20042;-82
2023/11/16 07:23:44;;;;;;;1.73;0.70;;;17.60;74.20;;;;;;4963303;28;20421;-82
2023/11/16 07:26:09;;;;;;;1.15;0.52;;;17.50;74.20;;;;;;4962386;28;20039;-81
2023/11/16 07:28:38;;;;;;;0.70;0.57;;;17.50;74.30;;;;;;4963485;28;20449;-81
2023/11/16 07:31:04;;;;;;;1.23;0.80;;;17.50;74.30;;;;;;4967253;28;20046;-84
2023/11/16 07:33:32;;;;;;;0.60;0.60;;;17.50;74.40;;;;;;4963449;28;20042;-83
2023/11/16 07:35:58;;;;;;;0.75;0.57;;;17.50;74.40;;;;;;4958067;28;20525;-85
2023/11/16 07:38:23;;;;;;;0.93;0.55;;;17.50;75.30;;;;;;4960487;28;20041;-82
2023/11/16 07:40:51;;;;;;;0.95;0.70;;;17.50;74.50;;;;;;4962991;28;20150;-83
2023/11/16 07:43:18;;;;;;;0.98;0.70;;;17.60;74.50;;;;;;4965818;28;20501;-83
2023/11/16 07:45:44;;;;;;;0.93;0.50;;;17.70;74.60;;;;;;4966273;28;20035;-82
2023/11/16 07:48:13;;;;;;;0.70;0.70;;;17.70;74.40;;;;;;4963016;28;20137;-83
2023/11/16 07:50:38;;;;;;;1.60;0.70;;;17.60;74.60;;;;;;4966619;28;20047;-83
2023/11/16 07:53:10;;;;;;;1.23;0.60;;;17.60;74.80;;;;;;4965718;28;20066;-83
2023/11/16 07:55:36;;;;;;;2.47;0.57;;;17.60;74.90;;;;;;4963592;28;20081;-83
2023/11/16 07:58:03;;;;;;;0.80;0.80;;;17.60;75.00;;;;;;4968853;28;20039;-83
2023/11/16 08:00:34;;;;;;;0.70;0.70;;;17.60;74.90;;;;;;4966241;28;20126;-82
2023/11/16 08:05:45;;;;;;;0.80;0.75;;;17.60;75.00;;;;;;4958057;28;20074;-82
2023/11/16 08:08:13;;;;;;;0.82;0.82;;;17.60;75.00;;;;;;4959422;28;20054;-82
2023/11/16 08:10:45;;;;;;;1.15;0.80;;;17.50;74.80;;;;;;4977509;28;20047;-82
2023/11/16 08:13:11;;;;;;;1.10;0.85;;;17.60;74.90;;;;;;4966930;28;20038;-82
2023/11/16 08:15:40;;;;;;;0.82;0.82;;;17.60;75.00;;;;;;4967022;28;20043;-83
2023/11/16 08:18:10;;;;;;;1.13;0.75;;;17.50;74.90;;;;;;4944886;28;20663;-83
2023/11/16 08:20:36;;;;;;;1.15;0.90;;;17.60;74.90;;;;;;4965600;28;20050;-82
2023/11/16 08:23:01;;;;;;;1.10;0.90;;;17.50;75.00;;;;;;4964686;28;20035;-83
2023/11/16 08:25:30;;;;;;;0.90;0.88;;;17.60;75.10;;;;;;4966342;28;20039;-82
2023/11/16 08:27:56;;;;;;;1.05;0.70;;;17.60;75.00;;;;;;4965428;28;20700;-82
2023/11/16 08:30:22;;;;;;;1.20;0.82;;;17.60;75.00;;;;;;4966677;28;20126;-82
2023/11/16 08:32:47;;;;;;;1.38;0.95;;;17.50;74.90;;;;;;4966738;28;20058;-83
2023/11/16 08:35:13;;;;;;;0.73;0.63;;;17.60;75.00;;;;;;4966987;28;20038;-82
2023/11/16 08:37:41;;;;;;;1.42;0.77;;;17.50;74.90;;;;;;4965621;28;20050;-83
2023/11/16 08:40:07;;;;;;;1.00;0.70;;;17.60;75.00;;;;;;4968318;28;20043;-83
2023/11/16 08:42:41;;;;;;;1.42;0.80;;;17.60;75.00;;;;;;4966317;28;20122;-83
2023/11/16 08:45:08;;;;;;;1.52;0.70;;;17.50;74.90;;;;;;4964131;28;20050;-83
2023/11/16 08:47:34;;;;;;;1.40;0.80;;;17.60;75.00;;;;;;4966760;28;20109;-83
2023/11/16 08:49:59;;;;;;;1.90;0.82;;;17.50;74.90;;;;;;4965570;28;20390;-82
2023/11/16 08:52:25;;;;;;;1.95;0.90;;;17.60;75.00;;;;;;4972059;28;20053;-83
2023/11/16 08:54:50;;;;;;;1.13;0.75;;;17.60;75.00;;;;;;4968869;28;20039;-83
2023/11/16 08:57:19;;;;;;;1.30;0.90;;;17.50;75.00;;;;;;4968236;28;20070;-82
2023/11/16 08:59:59;;;;;;;1.02;0.82;;;17.50;75.00;;;;;;4964808;28;20122;-83
2023/11/16 09:02:25;;;;;;;0.93;0.80;;;17.50;75.00;;;;;;4965161;28;20390;-83
2023/11/16 09:04:52;;;;;;;1.08;0.80;;;17.50;75.70;;;;;;4965987;28;20053;-82
2023/11/16 09:07:18;;;;;;;1.55;1.10;;;17.50;75.00;;;;;;4968335;28;20047;-83
2023/11/16 09:09:45;;;;;;;0.88;0.60;;;17.60;75.10;;;;;;4965809;28;20585;-83
2023/11/16 09:12:12;;;;;;;0.90;0.85;;;17.60;75.10;;;;;;4963468;28;20036;-83
2023/11/16 09:14:40;;;;;;;1.10;0.90;;;17.60;75.10;;;;;;4964487;28;20074;-82
2023/11/16 09:17:16;;;;;;;1.05;0.85;;;17.60;75.10;;;;;;4966614;28;20050;-83
2023/11/16 09:19:46;;;;;;;2.80;0.75;;;17.60;75.10;;;;;;4965753;28;20051;-82
2023/11/16 09:22:12;;;;;;;0.80;0.57;;;17.60;75.20;;;;;;4966794;28;20035;-82
2023/11/16 09:24:39;;;;;;;1.42;0.70;;;17.50;75.10;;;;;;4967804;28;20039;-82
2023/11/16 09:27:06;;;;;;;1.50;0.65;;;17.60;75.10;;;;;;4968945;28;20109;-83
2023/11/16 09:29:36;;;;;;;0.73;0.55;;;17.60;75.00;;;;;;4969271;28;20031;-83
2023/11/16 09:32:03;;;;;;;1.02;0.85;;;17.60;75.20;;;;;;4971321;28;20043;-83
2023/11/16 09:34:28;;;;;;;0.73;0.73;;;17.50;75.10;;;;;;4967461;28;20027;-82
2023/11/16 09:36:54;;;;;;;0.90;0.55;;;17.60;75.30;;;;;;4970833;28;20118;-82
2023/11/16 09:39:21;;;;;;;1.20;0.60;;;17.60;75.10;;;;;;4969869;28;20039;-83
2023/11/16 09:41:49;;;;;;;1.85;0.95;;;17.60;75.10;;;;;;4970906;28;20155;-83
2023/11/16 09:44:15;;;;;;;1.10;0.60;;;17.60;75.10;;;;;;4966929;28;20044;-82
2023/11/16 09:46:40;;;;;;;1.13;0.60;;;17.60;75.10;;;;;;4968362;28;20138;-83
2023/11/16 09:49:06;;;;;;;0.90;0.80;;;17.60;75.10;;;;;;4959335;28;20097;-83
2023/11/16 09:51:32;;;;;;;0.85;0.70;;;17.60;75.10;;;;;;4964553;28;20034;-83
2023/11/16 09:53:58;;;;;;;1.13;0.70;;;17.60;75.00;;;;;;4967823;28;20125;-83
2023/11/16 09:56:30;;;;;;;2.35;0.75;;;17.60;75.10;;;;;;4949312;28;20126;-83
2023/11/16 09:59:03;;;;;;;0.95;0.70;;;17.60;75.00;;;;;;4967239;28;20050;-83
2023/11/16 10:01:37;;;;;;;1.00;0.60;;;17.60;75.00;;;;;;4952353;28;20042;-83
2023/11/16 10:04:05;;;;;;;0.47;0.43;;;17.60;74.90;;;;;;4935673;28;20032;-83
2023/11/16 10:06:33;;;;;;;1.27;0.75;;;17.60;75.00;;;;;;4950556;28;20117;-83
2023/11/16 10:09:03;;;;;;;0.70;0.60;;;17.70;75.00;;;;;;4951403;28;20035;-83
2023/11/16 10:11:31;;;;;;;1.25;0.95;;;17.60;75.00;;;;;;4967397;28;20035;-82
2023/11/16 10:13:56;;;;;;;0.70;0.70;;;17.60;75.00;;;;;;4949622;28;20036;-83
2023/11/16 10:16:26;;;;;;;1.27;0.47;;;17.60;75.00;;;;;;4967381;28;20381;-83
2023/11/16 10:18:59;;;;;;;0.73;0.60;;;17.60;75.00;;;;;;4967931;28;20049;-83
2023/11/16 10:21:25;;;;;;;0.60;0.47;;;17.60;74.80;;;;;;4967107;28;20037;-82
2023/11/16 10:23:51;;;;;;;2.20;0.70;;;17.70;74.90;;;;;;4964100;28;20034;-82
2023/11/16 10:26:19;;;;;;;1.45;0.98;;;17.60;74.90;;;;;;4968618;28;20122;-83
2023/11/16 10:28:53;;;;;;;0.85;0.60;;;17.60;75.00;;;;;;4963790;28;20049;-83
2023/11/16 10:31:20;;;;;;;;;;;17.60;74.80;;;;;;4969008;28;20027;-82
2023/11/16 10:33:46;;;;;;;0.75;0.70;;;17.70;74.80;;;;;;4968935;28;19968;-83
2023/11/16 10:36:12;;;;;;;0.68;0.60;;;17.70;74.80;;;;;;4967885;28;20328;-82
2023/11/16 10:38:37;;;;;;;0.77;0.65;;;17.60;74.90;;;;;;4966302;28;20077;-83
2023/11/16 10:41:03;;;;;;;0.82;0.60;;;17.70;74.90;;;;;;4949553;28;20043;-83
2023/11/16 10:43:28;;;;;;;0.75;0.68;;;17.70;74.90;;;;;;4951510;28;20039;-83
2023/11/16 10:45:55;;;;;;;0.93;0.57;;;17.60;74.90;;;;;;4970452;28;20043;-82
2023/11/16 10:48:21;;;;;;;0.80;0.60;;;17.60;74.90;;;;;;4968197;28;20034;-83
2023/11/16 10:50:47;;;;;;;0.88;0.50;;;17.70;74.90;;;;;;4968137;28;20185;-83
2023/11/16 10:53:16;;;;;;;1.48;0.70;;;17.60;74.80;;;;;;4967978;28;20479;-82
2023/11/16 10:55:44;;;;;;;0.40;0.40;;;17.70;74.80;;;;;;4969059;28;20243;-83
2023/11/16 10:58:10;;;;;;;0.47;0.38;;;17.70;74.80;;;;;;4968907;28;20049;-83
2023/11/16 11:00:37;;;;;;;0.43;0.40;;;17.60;74.80;;;;;;4963237;28;20138;-83
2023/11/16 11:03:06;;;;;;;1.20;0.75;;;17.70;74.90;;;;;;4967676;28;20046;-83
2023/11/16 11:05:31;;;;;;;0.80;0.55;;;17.60;74.90;;;;;;4980368;28;20078;-83
2023/11/16 11:07:57;;;;;;;0.50;0.40;;;17.60;74.80;;;;;;4950154;28;20082;-81
2023/11/16 11:10:24;;;;;;;0.68;0.60;;;17.60;74.90;;;;;;4966925;28;20054;-80
2023/11/16 11:12:50;;;;;;;0.50;0.50;;;17.70;74.80;;;;;;4949534;28;20047;-79
2023/11/16 11:15:36;;;;;;;0.70;0.43;;;17.70;74.80;;;;;;4949428;28;20418;-80
2023/11/16 11:18:04;;;;;;;0.55;0.55;;;17.70;74.70;;;;;;4950805;28;20525;-81
2023/11/16 11:20:40;;;;;;;0.38;0.32;;;17.70;74.70;;;;;;4967800;28;20057;-80
2023/11/16 11:23:12;;;;;;;0.90;0.50;;;17.70;74.80;;;;;;4967338;28;20068;-80
2023/11/16 11:25:38;;;;;;;0.43;0.40;;;17.70;75.10;;;;;;4963671;28;20070;-81
2023/11/16 11:28:05;;;;;;;1.08;0.50;;;17.70;75.80;;;;;;4966909;28;20133;-80
2023/11/16 11:30:32;;;;;;;0.80;0.60;;;17.70;75.00;;;;;;4967471;28;20166;-81
2023/11/16 11:33:05;;;;;;;0.70;0.55;;;17.70;75.00;;;;;;4966631;28;20045;-81
2023/11/16 11:35:35;;;;;;;0.63;0.52;;;17.70;75.20;;;;;;4967157;28;20069;-80
2023/11/16 11:38:02;;;;;;;0.50;0.38;;;17.70;75.10;;;;;;4962709;28;20047;-81
2023/11/16 11:40:28;;;;;;;0.57;0.40;;;17.70;75.20;;;;;;4966512;28;20050;-80
2023/11/16 11:42:54;;;;;;;1.38;0.40;;;17.60;75.80;;;;;;4966355;28;20122;-81
2023/11/16 11:45:20;;;;;;;0.60;0.30;;;17.70;75.10;;;;;;4967922;28;20051;-80
2023/11/16 11:47:48;;;;;;;0.50;0.50;;;17.70;75.10;;;;;;4965656;28;20049;-80
2023/11/16 11:50:19;;;;;;;0.47;0.32;;;17.70;75.40;;;;;;4965802;28;20046;-80
2023/11/16 11:52:47;;;;;;;0.43;0.40;;;17.70;75.00;;;;;;4965421;28;20059;-81
2023/11/16 11:55:14;;;;;;;1.13;0.70;;;17.70;75.00;;;;;;4966538;28;20193;-80
2023/11/16 11:57:41;;;;;;;0.70;0.40;;;17.70;75.10;;;;;;4962223;28;20125;-80
2023/11/16 12:00:07;;;;;;;0.40;0.40;;;17.70;74.90;;;;;;4961939;28;20061;-80
2023/11/16 12:02:33;;;;;;;0.40;0.40;;;17.70;74.90;;;;;;4966247;28;20042;-80
2023/11/16 12:04:59;;;;;;;0.43;0.40;;;17.70;75.00;;;;;;4966351;28;20042;-81
2023/11/16 12:07:25;;;;;;;0.35;0.35;;;17.70;74.80;;;;;;4967783;28;20039;-80
2023/11/16 12:09:51;;;;;;;0.75;0.40;;;17.80;74.70;;;;;;4965095;28;20539;-80
2023/11/16 12:12:19;;;;;;;0.40;0.35;;;17.80;74.40;;;;;;4966330;28;20046;-81
2023/11/16 12:14:46;;;;;;;0.45;0.35;;;17.80;74.30;;;;;;4962061;28;20521;-80
2023/11/16 12:17:12;;;;;;;0.68;0.50;;;17.80;74.40;;;;;;4964541;28;20148;-81
2023/11/16 12:19:39;;;;;;;0.50;0.30;;;17.80;74.40;;;;;;4978844;28;20042;-82
2023/11/16 12:22:07;;;;;;;0.40;0.35;;;17.90;74.20;;;;;;4967769;28;20139;-82
2023/11/16 12:24:34;;;;;;;0.43;0.40;;;17.90;74.40;;;;;;4965064;28;20046;-83
2023/11/16 12:26:59;;;;;;;0.57;0.50;;;17.90;74.30;;;;;;4966562;28;20143;-84
2023/11/16 12:29:26;;;;;;;0.30;0.30;;;17.90;74.10;;;;;;4962738;28;20133;-82
2023/11/16 12:31:55;;;;;;;1.40;0.52;;;18.00;74.70;;;;;;4964586;28;20412;-85
2023/11/16 12:34:24;;;;;;;0.45;0.30;;;17.90;76.00;;;;;;4967316;28;20042;-85
2023/11/16 12:36:49;;;;;;;0.60;0.40;;;17.90;76.70;;;;;;4968152;28;20051;-87
2023/11/16 12:39:15;;;;;;;0.50;0.35;;;17.90;76.70;;;;;;4967032;28;20049;-85
2023/11/16 12:41:41;;;;;;;0.35;0.30;;;17.90;76.30;;;;;;4966683;28;20550;-86
2023/11/16 12:44:07;;;;;;;0.73;0.43;;;18.00;75.90;;;;;;4964718;28;20051;-86
2023/11/16 12:46:32;;;;;;;0.43;0.40;;;18.00;76.10;;;;;;4964704;28;20049;-85
2023/11/16 12:48:58;;;;;;;0.88;0.30;;;18.00;75.90;;;;;;4967835;28;20231;-86